sensor_id;sensor_type;location;lat;lon;timestamp;P1;durP1;ratioP1;P2;durP2;ratioP2
56541;SDS011;42438;53.174;6.730;2023-11-19T00:00:57;40.30;;;12.55;;
56541;SDS011;42438;53.174;6.730;2023-11-19T00:03:28;40.65;;;14.10;;
56541;SDS011;42438;53.174;6.730;2023-11-19T00:05:59;39.75;;;14.00;;
56541;SDS011;42438;53.174;6.730;2023-11-19T00:08:30;43.40;;;14.00;;
56541;SDS011;42438;53.174;6.730;2023-11-19T00:11:00;44.92;;;14.57;;
56541;SDS011;42438;53.174;6.730;2023-11-19T00:13:31;36.83;;;13.63;;
56541;SDS011;42438;53.174;6.730;2023-11-19T00:16:02;39.60;;;14.48;;
56541;SDS011;42438;53.174;6.730;2023-11-19T00:18:34;42.77;;;15.53;;
56541;SDS011;42438;53.174;6.730;2023-11-19T00:21:05;40.35;;;14.85;;
56541;SDS011;42438;53.174;6.730;2023-11-19T00:23:38;42.95;;;14.07;;
56541;SDS011;42438;53.174;6.730;2023-11-19T00:26:08;37.63;;;13.73;;
56541;SDS011;42438;53.174;6.730;2023-11-19T00:28:39;37.45;;;14.00;;
56541;SDS011;42438;53.174;6.730;2023-11-19T00:31:10;42.50;;;13.60;;
56541;SDS011;42438;53.174;6.730;2023-11-19T00:33:40;37.38;;;13.45;;
56541;SDS011;42438;53.174;6.730;2023-11-19T00:36:11;36.65;;;12.93;;
56541;SDS011;42438;53.174;6.730;2023-11-19T00:38:41;34.28;;;13.07;;
56541;SDS011;42438;53.174;6.730;2023-11-19T00:41:12;40.45;;;14.77;;
56541;SDS011;42438;53.174;6.730;2023-11-19T00:43:45;35.38;;;13.40;;
56541;SDS011;42438;53.174;6.730;2023-11-19T00:46:15;38.03;;;14.57;;
56541;SDS011;42438;53.174;6.730;2023-11-19T00:48:46;37.97;;;13.40;;
56541;SDS011;42438;53.174;6.730;2023-11-19T00:51:17;39.95;;;13.82;;
56541;SDS011;42438;53.174;6.730;2023-11-19T00:53:47;40.80;;;12.55;;
56541;SDS011;42438;53.174;6.730;2023-11-19T00:56:18;34.33;;;12.10;;
56541;SDS011;42438;53.174;6.730;2023-11-19T00:58:49;41.38;;;13.43;;
56541;SDS011;42438;53.174;6.730;2023-11-19T01:01:20;32.65;;;10.90;;
56541;SDS011;42438;53.174;6.730;2023-11-19T01:03:51;27.50;;;10.32;;
56541;SDS011;42438;53.174;6.730;2023-11-19T01:06:28;34.25;;;11.25;;
56541;SDS011;42438;53.174;6.730;2023-11-19T01:09:01;32.97;;;10.30;;
56541;SDS011;42438;53.174;6.730;2023-11-19T01:11:32;30.08;;;10.68;;
56541;SDS011;42438;53.174;6.730;2023-11-19T01:14:03;28.17;;;9.48;;
56541;SDS011;42438;53.174;6.730;2023-11-19T01:16:33;32.20;;;8.63;;
56541;SDS011;42438;53.174;6.730;2023-11-19T01:19:04;27.70;;;7.70;;
56541;SDS011;42438;53.174;6.730;2023-11-19T01:21:35;25.23;;;8.32;;
56541;SDS011;42438;53.174;6.730;2023-11-19T01:24:05;29.80;;;8.38;;
56541;SDS011;42438;53.174;6.730;2023-11-19T01:26:39;26.05;;;6.50;;
56541;SDS011;42438;53.174;6.730;2023-11-19T01:29:15;27.58;;;6.20;;
56541;SDS011;42438;53.174;6.730;2023-11-19T01:31:46;20.45;;;6.32;;
56541;SDS011;42438;53.174;6.730;2023-11-19T01:34:17;30.58;;;6.80;;
56541;SDS011;42438;53.174;6.730;2023-11-19T01:36:47;26.55;;;6.05;;
56541;SDS011;42438;53.174;6.730;2023-11-19T01:39:18;24.08;;;6.40;;
56541;SDS011;42438;53.174;6.730;2023-11-19T01:41:50;33.65;;;6.28;;
56541;SDS011;42438;53.174;6.730;2023-11-19T01:44:20;32.08;;;7.10;;
56541;SDS011;42438;53.174;6.730;2023-11-19T01:46:51;26.80;;;6.05;;
56541;SDS011;42438;53.174;6.730;2023-11-19T01:49:22;31.48;;;6.05;;
56541;SDS011;42438;53.174;6.730;2023-11-19T01:51:53;25.77;;;6.28;;
56541;SDS011;42438;53.174;6.730;2023-11-19T01:54:24;27.65;;;5.72;;
56541;SDS011;42438;53.174;6.730;2023-11-19T01:56:55;22.95;;;6.28;;
56541;SDS011;42438;53.174;6.730;2023-11-19T01:59:27;22.73;;;5.32;;
56541;SDS011;42438;53.174;6.730;2023-11-19T02:01:58;20.92;;;6.00;;
56541;SDS011;42438;53.174;6.730;2023-11-19T02:04:28;28.35;;;6.18;;
56541;SDS011;42438;53.174;6.730;2023-11-19T02:06:59;33.33;;;5.90;;
56541;SDS011;42438;53.174;6.730;2023-11-19T02:09:30;26.05;;;5.05;;
56541;SDS011;42438;53.174;6.730;2023-11-19T02:12:01;23.88;;;6.35;;
56541;SDS011;42438;53.174;6.730;2023-11-19T02:14:32;29.08;;;6.00;;
56541;SDS011;42438;53.174;6.730;2023-11-19T02:17:02;32.88;;;5.40;;
56541;SDS011;42438;53.174;6.730;2023-11-19T02:19:33;27.38;;;5.47;;
56541;SDS011;42438;53.174;6.730;2023-11-19T02:22:04;36.15;;;6.40;;
56541;SDS011;42438;53.174;6.730;2023-11-19T02:24:35;27.42;;;5.90;;
56541;SDS011;42438;53.174;6.730;2023-11-19T02:27:08;32.67;;;5.13;;
56541;SDS011;42438;53.174;6.730;2023-11-19T02:29:46;23.88;;;5.90;;
56541;SDS011;42438;53.174;6.730;2023-11-19T02:32:17;35.35;;;6.07;;
56541;SDS011;42438;53.174;6.730;2023-11-19T02:34:48;35.85;;;5.55;;
56541;SDS011;42438;53.174;6.730;2023-11-19T02:37:18;25.80;;;6.15;;
56541;SDS011;42438;53.174;6.730;2023-11-19T02:39:49;27.05;;;6.10;;
56541;SDS011;42438;53.174;6.730;2023-11-19T02:42:20;35.95;;;6.43;;
56541;SDS011;42438;53.174;6.730;2023-11-19T02:44:50;30.63;;;5.68;;
56541;SDS011;42438;53.174;6.730;2023-11-19T02:47:21;22.95;;;6.10;;
56541;SDS011;42438;53.174;6.730;2023-11-19T02:49:53;28.48;;;5.75;;
56541;SDS011;42438;53.174;6.730;2023-11-19T02:52:24;22.08;;;5.25;;
56541;SDS011;42438;53.174;6.730;2023-11-19T02:54:55;23.98;;;6.05;;
56541;SDS011;42438;53.174;6.730;2023-11-19T02:57:25;23.90;;;4.93;;
56541;SDS011;42438;53.174;6.730;2023-11-19T03:00:02;30.48;;;5.43;;
56541;SDS011;42438;53.174;6.730;2023-11-19T03:02:42;27.08;;;5.35;;
56541;SDS011;42438;53.174;6.730;2023-11-19T03:05:16;27.80;;;6.00;;
56541;SDS011;42438;53.174;6.730;2023-11-19T03:07:47;26.02;;;5.78;;
56541;SDS011;42438;53.174;6.730;2023-11-19T03:10:18;28.67;;;5.78;;
56541;SDS011;42438;53.174;6.730;2023-11-19T03:12:49;28.90;;;6.03;;
56541;SDS011;42438;53.174;6.730;2023-11-19T03:15:20;30.35;;;5.55;;
56541;SDS011;42438;53.174;6.730;2023-11-19T03:17:51;22.27;;;5.20;;
56541;SDS011;42438;53.174;6.730;2023-11-19T03:20:21;25.38;;;5.60;;
56541;SDS011;42438;53.174;6.730;2023-11-19T03:22:53;21.00;;;5.13;;
56541;SDS011;42438;53.174;6.730;2023-11-19T03:25:25;25.98;;;5.00;;
56541;SDS011;42438;53.174;6.730;2023-11-19T03:27:57;26.48;;;6.22;;
56541;SDS011;42438;53.174;6.730;2023-11-19T03:30:28;26.63;;;5.32;;
56541;SDS011;42438;53.174;6.730;2023-11-19T03:33:00;33.08;;;5.78;;
56541;SDS011;42438;53.174;6.730;2023-11-19T03:35:31;23.65;;;5.53;;
56541;SDS011;42438;53.174;6.730;2023-11-19T03:38:03;37.90;;;6.40;;
56541;SDS011;42438;53.174;6.730;2023-11-19T03:40:33;29.65;;;5.22;;
56541;SDS011;42438;53.174;6.730;2023-11-19T03:43:04;28.75;;;6.05;;
56541;SDS011;42438;53.174;6.730;2023-11-19T03:45:35;25.80;;;5.80;;
56541;SDS011;42438;53.174;6.730;2023-11-19T03:48:06;24.63;;;5.88;;
56541;SDS011;42438;53.174;6.730;2023-11-19T03:50:36;29.40;;;5.72;;
56541;SDS011;42438;53.174;6.730;2023-11-19T03:53:07;28.50;;;5.78;;
56541;SDS011;42438;53.174;6.730;2023-11-19T03:55:38;27.75;;;6.75;;
56541;SDS011;42438;53.174;6.730;2023-11-19T03:58:08;26.75;;;6.03;;
56541;SDS011;42438;53.174;6.730;2023-11-19T04:00:39;28.58;;;6.20;;
56541;SDS011;42438;53.174;6.730;2023-11-19T04:03:10;28.33;;;5.55;;
56541;SDS011;42438;53.174;6.730;2023-11-19T04:05:41;27.73;;;5.75;;
56541;SDS011;42438;53.174;6.730;2023-11-19T04:08:12;33.20;;;5.72;;
56541;SDS011;42438;53.174;6.730;2023-11-19T04:10:42;22.20;;;5.57;;
56541;SDS011;42438;53.174;6.730;2023-11-19T04:13:13;26.70;;;5.30;;
56541;SDS011;42438;53.174;6.730;2023-11-19T04:15:44;31.15;;;5.70;;
56541;SDS011;42438;53.174;6.730;2023-11-19T04:18:14;31.25;;;6.03;;
56541;SDS011;42438;53.174;6.730;2023-11-19T04:20:45;29.08;;;6.20;;
56541;SDS011;42438;53.174;6.730;2023-11-19T04:23:15;23.20;;;4.72;;
56541;SDS011;42438;53.174;6.730;2023-11-19T04:25:46;27.08;;;5.57;;
56541;SDS011;42438;53.174;6.730;2023-11-19T04:28:17;30.05;;;5.80;;
56541;SDS011;42438;53.174;6.730;2023-11-19T04:30:47;37.33;;;6.70;;
56541;SDS011;42438;53.174;6.730;2023-11-19T04:33:18;18.13;;;5.38;;
56541;SDS011;42438;53.174;6.730;2023-11-19T04:35:49;26.10;;;5.00;;
56541;SDS011;42438;53.174;6.730;2023-11-19T04:38:19;29.30;;;6.03;;
56541;SDS011;42438;53.174;6.730;2023-11-19T04:40:50;28.52;;;5.85;;
56541;SDS011;42438;53.174;6.730;2023-11-19T04:43:21;23.83;;;5.32;;
56541;SDS011;42438;53.174;6.730;2023-11-19T04:45:52;32.22;;;6.95;;
56541;SDS011;42438;53.174;6.730;2023-11-19T04:48:22;28.42;;;4.70;;
56541;SDS011;42438;53.174;6.730;2023-11-19T04:50:53;30.13;;;5.28;;
56541;SDS011;42438;53.174;6.730;2023-11-19T04:53:24;31.05;;;5.60;;
56541;SDS011;42438;53.174;6.730;2023-11-19T04:55:55;27.60;;;5.07;;
56541;SDS011;42438;53.174;6.730;2023-11-19T04:58:25;30.17;;;5.18;;
56541;SDS011;42438;53.174;6.730;2023-11-19T05:00:58;26.98;;;6.32;;
56541;SDS011;42438;53.174;6.730;2023-11-19T05:03:30;30.67;;;5.82;;
56541;SDS011;42438;53.174;6.730;2023-11-19T05:06:01;32.20;;;6.25;;
56541;SDS011;42438;53.174;6.730;2023-11-19T05:08:32;28.17;;;5.72;;
56541;SDS011;42438;53.174;6.730;2023-11-19T05:11:02;32.55;;;5.70;;
56541;SDS011;42438;53.174;6.730;2023-11-19T05:13:33;28.38;;;5.32;;
56541;SDS011;42438;53.174;6.730;2023-11-19T05:16:04;26.60;;;5.07;;
56541;SDS011;42438;53.174;6.730;2023-11-19T05:18:36;34.13;;;5.17;;
56541;SDS011;42438;53.174;6.730;2023-11-19T05:21:07;29.30;;;6.28;;
56541;SDS011;42438;53.174;6.730;2023-11-19T05:23:37;38.58;;;6.00;;
56541;SDS011;42438;53.174;6.730;2023-11-19T05:26:09;25.50;;;5.80;;
56541;SDS011;42438;53.174;6.730;2023-11-19T05:28:40;29.77;;;5.97;;
56541;SDS011;42438;53.174;6.730;2023-11-19T05:31:11;25.67;;;5.30;;
56541;SDS011;42438;53.174;6.730;2023-11-19T05:33:41;33.38;;;5.03;;
56541;SDS011;42438;53.174;6.730;2023-11-19T05:36:12;25.95;;;4.95;;
56541;SDS011;42438;53.174;6.730;2023-11-19T05:38:43;26.77;;;5.60;;
56541;SDS011;42438;53.174;6.730;2023-11-19T05:41:14;34.30;;;6.22;;
56541;SDS011;42438;53.174;6.730;2023-11-19T05:43:45;26.55;;;4.53;;
56541;SDS011;42438;53.174;6.730;2023-11-19T05:46:16;34.75;;;5.93;;
56541;SDS011;42438;53.174;6.730;2023-11-19T05:48:47;28.20;;;5.97;;
56541;SDS011;42438;53.174;6.730;2023-11-19T05:51:18;33.05;;;6.60;;
56541;SDS011;42438;53.174;6.730;2023-11-19T05:53:48;26.75;;;5.50;;
56541;SDS011;42438;53.174;6.730;2023-11-19T05:56:20;35.70;;;6.45;;
56541;SDS011;42438;53.174;6.730;2023-11-19T05:58:51;36.03;;;5.90;;
56541;SDS011;42438;53.174;6.730;2023-11-19T06:01:22;28.02;;;5.65;;
56541;SDS011;42438;53.174;6.730;2023-11-19T06:03:52;30.80;;;5.50;;
56541;SDS011;42438;53.174;6.730;2023-11-19T06:06:23;29.02;;;6.18;;
56541;SDS011;42438;53.174;6.730;2023-11-19T06:08:54;26.80;;;5.22;;
56541;SDS011;42438;53.174;6.730;2023-11-19T06:11:25;23.63;;;6.50;;
56541;SDS011;42438;53.174;6.730;2023-11-19T06:13:57;23.23;;;5.72;;
56541;SDS011;42438;53.174;6.730;2023-11-19T06:16:27;35.92;;;6.15;;
56541;SDS011;42438;53.174;6.730;2023-11-19T06:18:58;23.70;;;5.75;;
56541;SDS011;42438;53.174;6.730;2023-11-19T06:21:28;23.88;;;4.97;;
56541;SDS011;42438;53.174;6.730;2023-11-19T06:23:59;25.95;;;5.22;;
56541;SDS011;42438;53.174;6.730;2023-11-19T06:26:30;26.65;;;5.32;;
56541;SDS011;42438;53.174;6.730;2023-11-19T06:29:00;29.65;;;5.18;;
56541;SDS011;42438;53.174;6.730;2023-11-19T06:31:31;27.63;;;5.00;;
56541;SDS011;42438;53.174;6.730;2023-11-19T06:34:02;25.33;;;5.80;;
56541;SDS011;42438;53.174;6.730;2023-11-19T06:36:33;26.52;;;5.63;;
56541;SDS011;42438;53.174;6.730;2023-11-19T06:39:04;34.08;;;5.78;;
56541;SDS011;42438;53.174;6.730;2023-11-19T06:41:35;25.85;;;5.38;;
56541;SDS011;42438;53.174;6.730;2023-11-19T06:44:08;32.40;;;5.67;;
56541;SDS011;42438;53.174;6.730;2023-11-19T06:46:39;30.50;;;6.32;;
56541;SDS011;42438;53.174;6.730;2023-11-19T06:49:10;25.95;;;6.30;;
56541;SDS011;42438;53.174;6.730;2023-11-19T06:51:41;30.45;;;5.30;;
56541;SDS011;42438;53.174;6.730;2023-11-19T06:54:13;27.90;;;6.40;;
56541;SDS011;42438;53.174;6.730;2023-11-19T06:56:43;31.25;;;5.82;;
56541;SDS011;42438;53.174;6.730;2023-11-19T06:59:14;35.60;;;6.88;;
56541;SDS011;42438;53.174;6.730;2023-11-19T07:01:44;27.95;;;5.78;;
56541;SDS011;42438;53.174;6.730;2023-11-19T07:04:15;34.65;;;5.90;;
56541;SDS011;42438;53.174;6.730;2023-11-19T07:06:46;32.53;;;6.07;;
56541;SDS011;42438;53.174;6.730;2023-11-19T07:09:18;33.58;;;5.47;;
56541;SDS011;42438;53.174;6.730;2023-11-19T07:11:49;24.88;;;6.30;;
56541;SDS011;42438;53.174;6.730;2023-11-19T07:14:23;27.73;;;5.28;;
56541;SDS011;42438;53.174;6.730;2023-11-19T07:16:54;33.70;;;4.90;;
56541;SDS011;42438;53.174;6.730;2023-11-19T07:19:26;21.75;;;5.18;;
56541;SDS011;42438;53.174;6.730;2023-11-19T07:21:56;24.60;;;6.60;;
56541;SDS011;42438;53.174;6.730;2023-11-19T07:24:27;25.45;;;4.75;;
56541;SDS011;42438;53.174;6.730;2023-11-19T07:26:58;26.77;;;5.22;;
56541;SDS011;42438;53.174;6.730;2023-11-19T07:29:29;32.92;;;5.15;;
56541;SDS011;42438;53.174;6.730;2023-11-19T07:31:59;26.08;;;4.53;;
56541;SDS011;42438;53.174;6.730;2023-11-19T07:34:32;23.83;;;6.03;;
56541;SDS011;42438;53.174;6.730;2023-11-19T07:37:02;35.88;;;6.28;;
56541;SDS011;42438;53.174;6.730;2023-11-19T07:39:33;27.95;;;6.20;;
56541;SDS011;42438;53.174;6.730;2023-11-19T07:42:05;26.77;;;5.03;;
56541;SDS011;42438;53.174;6.730;2023-11-19T07:44:36;31.35;;;6.45;;
56541;SDS011;42438;53.174;6.730;2023-11-19T07:47:07;24.55;;;5.43;;
56541;SDS011;42438;53.174;6.730;2023-11-19T07:49:37;28.50;;;6.03;;
56541;SDS011;42438;53.174;6.730;2023-11-19T07:52:08;33.72;;;7.28;;
56541;SDS011;42438;53.174;6.730;2023-11-19T07:54:39;27.10;;;5.28;;
56541;SDS011;42438;53.174;6.730;2023-11-19T07:57:09;28.88;;;5.60;;
56541;SDS011;42438;53.174;6.730;2023-11-19T07:59:40;28.58;;;6.93;;
56541;SDS011;42438;53.174;6.730;2023-11-19T08:02:11;21.58;;;6.13;;
56541;SDS011;42438;53.174;6.730;2023-11-19T08:04:41;21.80;;;5.13;;
56541;SDS011;42438;53.174;6.730;2023-11-19T08:09:45;20.40;;;4.90;;
56541;SDS011;42438;53.174;6.730;2023-11-19T08:12:16;27.40;;;5.70;;
56541;SDS011;42438;53.174;6.730;2023-11-19T08:14:47;31.63;;;5.63;;
56541;SDS011;42438;53.174;6.730;2023-11-19T08:17:19;32.70;;;6.18;;
56541;SDS011;42438;53.174;6.730;2023-11-19T08:19:50;27.55;;;6.60;;
56541;SDS011;42438;53.174;6.730;2023-11-19T08:22:21;23.17;;;6.03;;
56541;SDS011;42438;53.174;6.730;2023-11-19T08:24:52;25.00;;;4.68;;
56541;SDS011;42438;53.174;6.730;2023-11-19T08:27:23;26.95;;;5.10;;
56541;SDS011;42438;53.174;6.730;2023-11-19T08:29:56;28.75;;;6.88;;
56541;SDS011;42438;53.174;6.730;2023-11-19T08:32:27;28.85;;;5.60;;
56541;SDS011;42438;53.174;6.730;2023-11-19T08:34:58;23.13;;;5.40;;
56541;SDS011;42438;53.174;6.730;2023-11-19T08:37:28;27.27;;;5.72;;
56541;SDS011;42438;53.174;6.730;2023-11-19T08:39:59;28.98;;;4.60;;
56541;SDS011;42438;53.174;6.730;2023-11-19T08:42:31;26.88;;;5.15;;
56541;SDS011;42438;53.174;6.730;2023-11-19T08:45:01;24.58;;;5.80;;
56541;SDS011;42438;53.174;6.730;2023-11-19T08:47:32;25.80;;;6.40;;
56541;SDS011;42438;53.174;6.730;2023-11-19T08:50:03;20.65;;;5.10;;
56541;SDS011;42438;53.174;6.730;2023-11-19T08:52:34;34.90;;;6.20;;
56541;SDS011;42438;53.174;6.730;2023-11-19T08:55:05;22.48;;;5.13;;
56541;SDS011;42438;53.174;6.730;2023-11-19T08:57:35;26.65;;;5.72;;
56541;SDS011;42438;53.174;6.730;2023-11-19T09:00:06;24.67;;;4.88;;
56541;SDS011;42438;53.174;6.730;2023-11-19T09:02:38;21.75;;;4.15;;
56541;SDS011;42438;53.174;6.730;2023-11-19T09:05:08;25.52;;;5.45;;
56541;SDS011;42438;53.174;6.730;2023-11-19T09:07:39;27.10;;;5.65;;
56541;SDS011;42438;53.174;6.730;2023-11-19T09:10:09;26.27;;;5.85;;
56541;SDS011;42438;53.174;6.730;2023-11-19T09:12:41;35.53;;;5.68;;
56541;SDS011;42438;53.174;6.730;2023-11-19T09:15:12;29.80;;;4.80;;
56541;SDS011;42438;53.174;6.730;2023-11-19T09:17:43;25.70;;;5.50;;
56541;SDS011;42438;53.174;6.730;2023-11-19T09:20:13;25.48;;;4.95;;
56541;SDS011;42438;53.174;6.730;2023-11-19T09:22:45;33.80;;;5.82;;
56541;SDS011;42438;53.174;6.730;2023-11-19T09:25:16;25.67;;;5.43;;
56541;SDS011;42438;53.174;6.730;2023-11-19T09:27:47;27.60;;;6.47;;
56541;SDS011;42438;53.174;6.730;2023-11-19T09:30:17;22.65;;;5.20;;
56541;SDS011;42438;53.174;6.730;2023-11-19T09:32:48;28.95;;;5.05;;
56541;SDS011;42438;53.174;6.730;2023-11-19T09:35:18;29.35;;;5.63;;
56541;SDS011;42438;53.174;6.730;2023-11-19T09:37:49;26.48;;;4.93;;
56541;SDS011;42438;53.174;6.730;2023-11-19T09:40:20;28.67;;;5.50;;
56541;SDS011;42438;53.174;6.730;2023-11-19T09:42:50;26.13;;;5.63;;
56541;SDS011;42438;53.174;6.730;2023-11-19T09:45:21;31.20;;;5.90;;
56541;SDS011;42438;53.174;6.730;2023-11-19T09:47:53;31.08;;;5.03;;
56541;SDS011;42438;53.174;6.730;2023-11-19T09:50:27;28.90;;;5.93;;
56541;SDS011;42438;53.174;6.730;2023-11-19T09:52:58;19.33;;;5.97;;
56541;SDS011;42438;53.174;6.730;2023-11-19T09:55:29;31.05;;;6.40;;
56541;SDS011;42438;53.174;6.730;2023-11-19T09:58:00;29.00;;;5.10;;
56541;SDS011;42438;53.174;6.730;2023-11-19T10:00:32;26.15;;;4.40;;
56541;SDS011;42438;53.174;6.730;2023-11-19T10:03:03;26.63;;;5.00;;
56541;SDS011;42438;53.174;6.730;2023-11-19T10:05:37;27.90;;;5.45;;
56541;SDS011;42438;53.174;6.730;2023-11-19T10:08:11;23.95;;;5.78;;
56541;SDS011;42438;53.174;6.730;2023-11-19T10:10:41;20.60;;;4.70;;
56541;SDS011;42438;53.174;6.730;2023-11-19T10:13:12;19.63;;;4.57;;
56541;SDS011;42438;53.174;6.730;2023-11-19T10:15:44;26.90;;;5.57;;
56541;SDS011;42438;53.174;6.730;2023-11-19T10:18:17;24.52;;;4.90;;
56541;SDS011;42438;53.174;6.730;2023-11-19T10:20:48;25.70;;;5.22;;
56541;SDS011;42438;53.174;6.730;2023-11-19T10:23:19;26.92;;;5.18;;
56541;SDS011;42438;53.174;6.730;2023-11-19T10:25:50;28.25;;;6.15;;
56541;SDS011;42438;53.174;6.730;2023-11-19T10:28:23;22.73;;;4.32;;
56541;SDS011;42438;53.174;6.730;2023-11-19T10:30:56;28.70;;;5.40;;
56541;SDS011;42438;53.174;6.730;2023-11-19T10:33:27;28.77;;;5.93;;
56541;SDS011;42438;53.174;6.730;2023-11-19T10:36:00;25.65;;;4.90;;
56541;SDS011;42438;53.174;6.730;2023-11-19T10:38:31;28.40;;;4.90;;
56541;SDS011;42438;53.174;6.730;2023-11-19T10:41:02;26.50;;;5.30;;
56541;SDS011;42438;53.174;6.730;2023-11-19T10:43:43;32.38;;;6.40;;
56541;SDS011;42438;53.174;6.730;2023-11-19T10:46:14;25.33;;;5.63;;
56541;SDS011;42438;53.174;6.730;2023-11-19T10:48:50;28.70;;;5.07;;
56541;SDS011;42438;53.174;6.730;2023-11-19T10:51:21;23.00;;;4.38;;
56541;SDS011;42438;53.174;6.730;2023-11-19T10:53:53;28.20;;;5.07;;
56541;SDS011;42438;53.174;6.730;2023-11-19T10:56:29;27.80;;;5.32;;
56541;SDS011;42438;53.174;6.730;2023-11-19T10:59:01;26.33;;;6.07;;
56541;SDS011;42438;53.174;6.730;2023-11-19T11:01:45;27.75;;;5.40;;
56541;SDS011;42438;53.174;6.730;2023-11-19T11:04:24;25.77;;;4.55;;
56541;SDS011;42438;53.174;6.730;2023-11-19T11:06:56;23.77;;;4.95;;
56541;SDS011;42438;53.174;6.730;2023-11-19T11:09:30;27.05;;;5.70;;
56541;SDS011;42438;53.174;6.730;2023-11-19T11:12:02;25.43;;;5.47;;
56541;SDS011;42438;53.174;6.730;2023-11-19T11:14:37;21.92;;;5.03;;
56541;SDS011;42438;53.174;6.730;2023-11-19T11:17:10;28.63;;;5.03;;
56541;SDS011;42438;53.174;6.730;2023-11-19T11:19:42;25.57;;;5.30;;
56541;SDS011;42438;53.174;6.730;2023-11-19T11:22:14;28.83;;;5.20;;
56541;SDS011;42438;53.174;6.730;2023-11-19T11:27:46;24.73;;;5.85;;
56541;SDS011;42438;53.174;6.730;2023-11-19T11:31:48;30.55;;;4.63;;
56541;SDS011;42438;53.174;6.730;2023-11-19T11:36:26;21.13;;;4.35;;
56541;SDS011;42438;53.174;6.730;2023-11-19T11:38:58;25.75;;;4.95;;
56541;SDS011;42438;53.174;6.730;2023-11-19T11:41:37;28.65;;;6.30;;
56541;SDS011;42438;53.174;6.730;2023-11-19T11:44:08;20.50;;;4.47;;
56541;SDS011;42438;53.174;6.730;2023-11-19T11:49:10;22.92;;;4.60;;
56541;SDS011;42438;53.174;6.730;2023-11-19T11:59:51;24.58;;;4.80;;
56541;SDS011;42438;53.174;6.730;2023-11-19T12:02:22;27.65;;;5.35;;
56541;SDS011;42438;53.174;6.730;2023-11-19T12:04:52;28.05;;;5.35;;
56541;SDS011;42438;53.174;6.730;2023-11-19T12:07:24;20.98;;;5.35;;
56541;SDS011;42438;53.174;6.730;2023-11-19T12:10:05;29.88;;;4.38;;
56541;SDS011;42438;53.174;6.730;2023-11-19T12:12:37;23.77;;;4.45;;
56541;SDS011;42438;53.174;6.730;2023-11-19T12:15:10;22.58;;;4.93;;
56541;SDS011;42438;53.174;6.730;2023-11-19T12:17:42;25.55;;;4.93;;
56541;SDS011;42438;53.174;6.730;2023-11-19T12:20:17;17.13;;;3.60;;
56541;SDS011;42438;53.174;6.730;2023-11-19T12:22:49;20.98;;;5.22;;
56541;SDS011;42438;53.174;6.730;2023-11-19T12:25:21;26.90;;;4.80;;
56541;SDS011;42438;53.174;6.730;2023-11-19T12:27:52;21.52;;;4.55;;
56541;SDS011;42438;53.174;6.730;2023-11-19T12:30:24;27.20;;;6.05;;
56541;SDS011;42438;53.174;6.730;2023-11-19T12:32:55;24.10;;;5.72;;
56541;SDS011;42438;53.174;6.730;2023-11-19T12:35:26;24.27;;;4.47;;
56541;SDS011;42438;53.174;6.730;2023-11-19T12:37:57;24.40;;;5.45;;
56541;SDS011;42438;53.174;6.730;2023-11-19T12:40:27;27.15;;;5.22;;
56541;SDS011;42438;53.174;6.730;2023-11-19T12:42:59;19.17;;;4.32;;
56541;SDS011;42438;53.174;6.730;2023-11-19T12:45:36;24.05;;;4.57;;
56541;SDS011;42438;53.174;6.730;2023-11-19T12:48:08;20.40;;;4.00;;
56541;SDS011;42438;53.174;6.730;2023-11-19T12:50:54;20.27;;;3.67;;
56541;SDS011;42438;53.174;6.730;2023-11-19T12:53:27;19.33;;;4.20;;
56541;SDS011;42438;53.174;6.730;2023-11-19T12:55:59;23.00;;;3.85;;
56541;SDS011;42438;53.174;6.730;2023-11-19T12:58:38;14.07;;;3.00;;
56541;SDS011;42438;53.174;6.730;2023-11-19T13:01:09;26.23;;;4.93;;
56541;SDS011;42438;53.174;6.730;2023-11-19T13:03:40;21.77;;;4.40;;
56541;SDS011;42438;53.174;6.730;2023-11-19T13:06:11;26.33;;;5.13;;
56541;SDS011;42438;53.174;6.730;2023-11-19T13:08:46;20.35;;;4.72;;
56541;SDS011;42438;53.174;6.730;2023-11-19T13:11:32;26.83;;;5.25;;
56541;SDS011;42438;53.174;6.730;2023-11-19T13:14:06;18.63;;;3.60;;
56541;SDS011;42438;53.174;6.730;2023-11-19T13:16:41;17.80;;;4.43;;
56541;SDS011;42438;53.174;6.730;2023-11-19T13:19:12;24.20;;;4.68;;
56541;SDS011;42438;53.174;6.730;2023-11-19T13:21:47;21.52;;;4.10;;
56541;SDS011;42438;53.174;6.730;2023-11-19T13:24:18;18.67;;;4.55;;
56541;SDS011;42438;53.174;6.730;2023-11-19T13:26:49;17.77;;;4.18;;
56541;SDS011;42438;53.174;6.730;2023-11-19T13:29:19;19.90;;;4.10;;
56541;SDS011;42438;53.174;6.730;2023-11-19T13:31:50;23.75;;;4.75;;
56541;SDS011;42438;53.174;6.730;2023-11-19T13:34:21;21.80;;;3.45;;
56541;SDS011;42438;53.174;6.730;2023-11-19T13:36:51;21.50;;;4.00;;
56541;SDS011;42438;53.174;6.730;2023-11-19T13:39:22;17.20;;;3.58;;
56541;SDS011;42438;53.174;6.730;2023-11-19T13:41:52;18.23;;;3.63;;
56541;SDS011;42438;53.174;6.730;2023-11-19T13:44:23;19.77;;;3.83;;
56541;SDS011;42438;53.174;6.730;2023-11-19T13:46:54;23.67;;;4.32;;
56541;SDS011;42438;53.174;6.730;2023-11-19T13:49:24;21.65;;;4.00;;
56541;SDS011;42438;53.174;6.730;2023-11-19T13:51:55;18.63;;;4.20;;
56541;SDS011;42438;53.174;6.730;2023-11-19T13:54:25;17.35;;;3.47;;
56541;SDS011;42438;53.174;6.730;2023-11-19T13:56:56;18.55;;;3.70;;
56541;SDS011;42438;53.174;6.730;2023-11-19T13:59:31;16.38;;;3.47;;
56541;SDS011;42438;53.174;6.730;2023-11-19T14:02:02;28.95;;;4.45;;
56541;SDS011;42438;53.174;6.730;2023-11-19T14:04:34;19.80;;;3.70;;
56541;SDS011;42438;53.174;6.730;2023-11-19T14:07:04;23.85;;;5.03;;
56541;SDS011;42438;53.174;6.730;2023-11-19T14:09:35;24.13;;;4.30;;
56541;SDS011;42438;53.174;6.730;2023-11-19T14:12:05;18.95;;;3.83;;
56541;SDS011;42438;53.174;6.730;2023-11-19T14:14:36;16.02;;;4.13;;
56541;SDS011;42438;53.174;6.730;2023-11-19T14:17:07;17.50;;;4.28;;
56541;SDS011;42438;53.174;6.730;2023-11-19T14:19:38;27.27;;;4.25;;
56541;SDS011;42438;53.174;6.730;2023-11-19T14:22:09;21.80;;;4.90;;
56541;SDS011;42438;53.174;6.730;2023-11-19T14:24:40;20.70;;;3.70;;
56541;SDS011;42438;53.174;6.730;2023-11-19T14:27:12;24.65;;;4.50;;
56541;SDS011;42438;53.174;6.730;2023-11-19T14:29:43;21.52;;;4.15;;
56541;SDS011;42438;53.174;6.730;2023-11-19T14:32:16;28.80;;;5.20;;
56541;SDS011;42438;53.174;6.730;2023-11-19T14:34:47;19.65;;;3.92;;
56541;SDS011;42438;53.174;6.730;2023-11-19T14:37:18;21.10;;;4.95;;
56541;SDS011;42438;53.174;6.730;2023-11-19T14:39:48;23.23;;;3.78;;
56541;SDS011;42438;53.174;6.730;2023-11-19T14:42:20;18.05;;;4.65;;
56541;SDS011;42438;53.174;6.730;2023-11-19T14:44:52;18.05;;;3.80;;
56541;SDS011;42438;53.174;6.730;2023-11-19T14:47:24;20.08;;;4.38;;
56541;SDS011;42438;53.174;6.730;2023-11-19T14:49:55;16.48;;;4.45;;
56541;SDS011;42438;53.174;6.730;2023-11-19T14:52:25;25.30;;;5.10;;
56541;SDS011;42438;53.174;6.730;2023-11-19T14:54:56;30.35;;;5.95;;
56541;SDS011;42438;53.174;6.730;2023-11-19T14:57:27;18.85;;;3.83;;
56541;SDS011;42438;53.174;6.730;2023-11-19T14:59:57;18.33;;;3.97;;
56541;SDS011;42438;53.174;6.730;2023-11-19T15:02:28;17.75;;;3.97;;
56541;SDS011;42438;53.174;6.730;2023-11-19T15:04:59;22.98;;;3.90;;
56541;SDS011;42438;53.174;6.730;2023-11-19T15:07:29;19.25;;;4.07;;
56541;SDS011;42438;53.174;6.730;2023-11-19T15:10:03;20.52;;;4.93;;
56541;SDS011;42438;53.174;6.730;2023-11-19T15:12:39;23.58;;;4.47;;
56541;SDS011;42438;53.174;6.730;2023-11-19T15:15:11;21.45;;;4.30;;
56541;SDS011;42438;53.174;6.730;2023-11-19T15:17:46;18.00;;;4.53;;